Time;durP1;ratioP1;P1;durP2;ratioP2;P2;SDS_P1;SDS_P2;PMS_P1;PMS_P2;Temp;Humidity;BMP_temperature;BMP_pressure;BME280_temperature;BME280_humidity;BME280_pressure;Samples;Min_cycle;Max_cycle;Signal;HPM_P1;HPM_P2
2023/03/17 04:02:33;;;;;;;12.00;7.83;;;4.00;99.90;;;;;;4927923;23;20330;-77
2023/03/17 04:04:59;;;;;;;8.63;7.93;;;4.00;99.90;;;;;;4899354;29;20203;-77
2023/03/17 04:07:25;;;;;;;8.63;7.93;;;3.90;99.90;;;;;;4897311;29;20219;-77
2023/03/17 04:09:51;;;;;;;10.80;10.10;;;3.70;99.90;;;;;;4897598;29;20184;-77
2023/03/17 04:12:17;;;;;;;12.33;11.53;;;3.60;99.90;;;;;;4897417;29;20207;-77
2023/03/17 04:14:43;;;;;;;11.20;10.20;;;3.60;99.90;;;;;;4932813;23;20242;-75
2023/03/17 04:17:10;;;;;;;8.93;8.20;;;3.50;99.90;;;;;;4915303;29;20659;-75
2023/03/17 04:19:38;;;;;;;9.70;8.87;;;3.50;99.90;;;;;;4914957;29;20183;-76
2023/03/17 04:22:05;;;;;;;8.70;8.10;;;3.40;99.90;;;;;;4915032;29;20183;-76
2023/03/17 04:24:31;;;;;;;9.80;9.20;;;3.30;99.90;;;;;;4914719;29;20238;-76
2023/03/17 04:26:57;;;;;;;9.83;9.10;;;3.30;99.90;;;;;;4916243;29;20290;-76
2023/03/17 04:29:23;;;;;;;10.10;9.40;;;3.30;99.90;;;;;;4915798;29;20274;-75
2023/03/17 04:31:48;;;;;;;9.70;8.90;;;3.30;99.90;;;;;;4915567;29;20206;-76
2023/03/17 04:34:16;;;;;;;11.83;10.67;;;3.20;99.90;;;;;;4915955;29;20223;-76
2023/03/17 04:36:43;;;;;;;10.93;9.93;;;3.20;99.90;;;;;;4946540;29;20187;-76
2023/03/17 04:39:09;;;;;;;9.97;9.27;;;3.10;99.90;;;;;;4914674;29;20192;-76
2023/03/17 04:41:35;;;;;;;10.30;9.50;;;3.10;99.90;;;;;;4914728;29;20187;-75
2023/03/17 04:44:01;;;;;;;9.93;9.33;;;3.00;99.90;;;;;;4915829;29;20216;-76
2023/03/17 04:46:27;;;;;;;11.53;10.73;;;2.90;99.90;;;;;;4915762;29;20298;-75
2023/03/17 04:48:53;;;;;;;11.63;10.67;;;2.80;99.90;;;;;;4914511;29;20191;-76
2023/03/17 04:51:19;;;;;;;8.60;8.00;;;2.80;99.90;;;;;;4913575;29;20234;-76
2023/03/17 04:53:45;;;;;;;9.20;8.50;;;2.80;99.90;;;;;;4914644;29;20703;-77
2023/03/17 04:56:11;;;;;;;8.77;8.07;;;2.70;99.90;;;;;;4914132;29;20215;-76
2023/03/17 04:58:37;;;;;;;10.93;9.97;;;2.70;99.90;;;;;;4914799;29;20215;-76
2023/03/17 05:01:03;;;;;;;8.97;8.23;;;2.60;99.90;;;;;;4913116;29;20351;-76
2023/03/17 05:03:30;;;;;;;9.20;8.50;;;2.60;99.90;;;;;;4914467;29;20214;-76
2023/03/17 05:05:56;;;;;;;9.87;9.07;;;2.60;99.90;;;;;;4914313;29;20182;-76
2023/03/17 05:08:23;;;;;;;10.33;9.73;;;2.60;99.90;;;;;;4915523;29;20258;-76
2023/03/17 05:10:50;;;;;;;9.90;9.20;;;2.50;99.90;;;;;;4914014;29;20211;-76
2023/03/17 05:13:17;;;;;;;9.17;8.43;;;2.50;99.90;;;;;;4915186;29;20257;-76
2023/03/17 05:15:48;;;;;;;10.10;9.23;;;2.40;99.90;;;;;;4915627;29;20175;-76
2023/03/17 05:18:16;;;;;;;13.87;10.07;;;2.40;99.90;;;;;;4914356;29;20412;-75
2023/03/17 05:20:42;;;;;;;9.77;8.90;;;2.40;99.90;;;;;;4913791;29;20208;-76
2023/03/17 05:23:07;;;;;;;10.57;9.63;;;2.30;99.90;;;;;;4914174;29;20187;-76
2023/03/17 05:25:33;;;;;;;8.87;8.27;;;2.30;99.90;;;;;;4912377;29;20190;-74
2023/03/17 05:28:00;;;;;;;12.33;8.93;;;2.20;99.90;;;;;;4908482;29;20651;-76
2023/03/17 05:30:26;;;;;;;9.30;8.43;;;2.20;99.90;;;;;;4912989;29;20183;-77
2023/03/17 05:32:52;;;;;;;9.47;8.57;;;2.10;99.90;;;;;;4914553;29;20244;-76
2023/03/17 05:35:18;;;;;;;10.00;9.30;;;2.10;99.90;;;;;;4945346;28;20231;-77
2023/03/17 05:37:45;;;;;;;8.70;7.90;;;2.20;99.90;;;;;;4915786;29;20621;-77
2023/03/17 05:40:12;;;;;;;9.50;8.80;;;2.20;99.90;;;;;;4921214;29;20206;-77
2023/03/17 05:42:38;;;;;;;9.07;8.27;;;2.10;99.90;;;;;;4921445;29;20202;-76
2023/03/17 05:45:06;;;;;;;9.27;8.40;;;2.10;99.90;;;;;;4961304;28;20207;-76
2023/03/17 05:47:32;;;;;;;9.27;8.57;;;2.20;99.90;;;;;;4928310;29;20221;-76
2023/03/17 05:49:59;;;;;;;9.83;9.10;;;2.20;99.90;;;;;;4926684;29;20179;-77
2023/03/17 05:52:25;;;;;;;9.70;8.90;;;2.10;99.90;;;;;;4915049;29;20655;-77
2023/03/17 05:54:52;;;;;;;11.40;10.30;;;2.10;99.90;;;;;;4916122;29;20205;-77
2023/03/17 05:57:18;;;;;;;13.43;12.23;;;2.10;99.90;;;;;;4915128;29;20726;-77
2023/03/17 05:59:44;;;;;;;13.23;12.07;;;2.20;99.90;;;;;;4916248;29;20223;-77
2023/03/17 06:02:10;;;;;;;13.17;11.87;;;2.20;99.90;;;;;;4915368;29;20250;-77
2023/03/17 06:04:36;;;;;;;13.93;12.37;;;2.20;99.90;;;;;;4915286;29;20260;-77
2023/03/17 06:07:04;;;;;;;13.50;12.10;;;2.20;99.90;;;;;;4921053;29;20245;-77
2023/03/17 06:09:32;;;;;;;10.63;9.47;;;2.40;99.90;;;;;;4920900;29;20587;-77
2023/03/17 06:11:58;;;;;;;9.80;9.00;;;2.50;99.90;;;;;;4919792;29;20274;-76
2023/03/17 06:14:24;;;;;;;10.93;9.87;;;2.60;99.90;;;;;;4920932;29;20672;-77
2023/03/17 06:16:50;;;;;;;11.63;10.67;;;2.70;99.90;;;;;;4920941;29;20186;-79
2023/03/17 06:19:16;;;;;;;12.20;11.13;;;2.80;99.90;;;;;;4921055;29;20179;-77
2023/03/17 06:21:42;;;;;;;13.63;12.53;;;2.90;99.90;;;;;;4919794;29;20182;-76
2023/03/17 06:24:08;;;;;;;10.43;9.63;;;3.10;99.90;;;;;;4919549;29;20203;-77
2023/03/17 06:26:36;;;;;;;12.20;9.40;;;3.30;99.90;;;;;;4920264;29;20218;-76
2023/03/17 06:29:08;;;;;;;10.90;9.73;;;3.60;99.90;;;;;;4920869;29;20192;-77
2023/03/17 06:31:35;;;;;;;15.50;10.80;;;3.80;99.90;;;;;;4920792;29;20273;-77
2023/03/17 06:34:02;;;;;;;11.90;10.33;;;3.90;99.90;;;;;;4920358;29;20203;-77
2023/03/17 06:36:28;;;;;;;15.50;11.03;;;4.10;99.90;;;;;;4919825;29;20585;-77
2023/03/17 06:38:54;;;;;;;12.23;11.13;;;4.20;99.90;;;;;;4919493;29;20186;-77
2023/03/17 06:41:19;;;;;;;15.70;14.47;;;4.30;99.90;;;;;;4921737;29;20183;-77
2023/03/17 06:43:45;;;;;;;19.57;17.97;;;4.40;99.90;;;;;;4921494;29;20581;-76
2023/03/17 06:46:11;;;;;;;21.87;20.27;;;4.40;99.90;;;;;;4922347;29;20222;-77
2023/03/17 06:48:37;;;;;;;20.17;18.47;;;4.50;99.90;;;;;;4941789;29;20182;-77
2023/03/17 06:51:04;;;;;;;15.53;14.03;;;4.60;99.90;;;;;;4942454;29;20291;-77
2023/03/17 06:53:30;;;;;;;13.70;12.03;;;4.70;99.90;;;;;;4920957;29;20207;-77
2023/03/17 06:55:56;;;;;;;10.83;9.33;;;4.90;99.90;;;;;;4918804;29;20191;-77
2023/03/17 06:58:22;;;;;;;10.87;9.87;;;5.20;99.90;;;;;;4919515;29;20175;-77
2023/03/17 07:00:48;;;;;;;32.83;30.90;;;5.60;99.90;;;;;;4924658;29;20215;-77
2023/03/17 07:03:14;;;;;;;19.63;18.10;;;6.20;99.90;;;;;;4931569;29;20207;-77
2023/03/17 07:05:41;;;;;;;11.50;10.60;;;6.90;99.90;;;;;;4923384;29;20768;-77
2023/03/17 07:08:07;;;;;;;13.70;12.63;;;7.70;99.90;;;;;;4920668;29;20212;-77
2023/03/17 07:10:34;;;;;;;11.73;10.83;;;8.20;99.90;;;;;;4919915;29;20193;-77
2023/03/17 07:13:01;;;;;;;14.57;13.47;;;8.50;99.90;;;;;;4919731;29;20206;-77
2023/03/17 07:15:30;;;;;;;18.00;16.80;;;8.90;99.90;;;;;;4921606;29;20183;-77
2023/03/17 07:17:56;;;;;;;11.40;10.30;;;9.30;99.90;;;;;;4918413;29;20550;-77
2023/03/17 07:20:22;;;;;;;9.63;8.70;;;9.50;99.90;;;;;;4919477;29;20190;-77
2023/03/17 07:22:47;;;;;;;10.07;8.57;;;9.80;99.90;;;;;;4910952;29;20190;-77
2023/03/17 07:25:14;;;;;;;12.97;11.77;;;10.10;99.90;;;;;;4905512;29;20226;-78
2023/03/17 07:27:39;;;;;;;21.13;19.33;;;10.40;99.90;;;;;;4924692;29;20260;-66
2023/03/17 07:30:06;;;;;;;25.43;23.47;;;10.90;99.90;;;;;;4934527;29;20666;-66
2023/03/17 07:32:32;;;;;;;21.27;19.57;;;11.10;99.90;;;;;;4926832;29;20210;-66
2023/03/17 07:34:58;;;;;;;20.13;18.37;;;10.90;99.90;;;;;;4917057;29;20233;-66
2023/03/17 07:37:24;;;;;;;23.17;21.63;;;10.50;99.90;;;;;;4917122;29;20554;-66
2023/03/17 07:39:50;;;;;;;26.17;20.27;;;10.20;99.90;;;;;;4916738;29;20194;-68
2023/03/17 07:42:16;;;;;;;22.33;20.83;;;10.20;99.90;;;;;;4916511;29;20259;-70
2023/03/17 07:44:43;;;;;;;19.73;18.30;;;10.40;99.90;;;;;;4917307;29;20207;-69
2023/03/17 07:47:10;;;;;;;16.07;14.87;;;10.90;99.90;;;;;;4916043;29;20214;-70
2023/03/17 07:49:36;;;;;;;12.40;11.57;;;11.20;99.90;;;;;;4916763;29;20198;-70
2023/03/17 07:52:02;;;;;;;13.53;12.47;;;11.30;99.90;;;;;;4916775;29;20194;-69
2023/03/17 07:54:28;;;;;;;14.33;13.13;;;11.00;99.90;;;;;;4916731;29;20234;-70
2023/03/17 07:56:55;;;;;;;15.77;14.30;;;10.90;99.90;;;;;;4916962;29;20234;-70
2023/03/17 07:59:21;;;;;;;14.07;13.03;;;11.00;99.90;;;;;;4916442;29;20191;-70
2023/03/17 08:01:47;;;;;;;11.80;10.80;;;11.20;99.90;;;;;;4916478;29;21869;-70
2023/03/17 08:04:13;;;;;;;9.87;9.07;;;11.30;99.90;;;;;;4916586;29;20244;-69
2023/03/17 08:06:42;;;;;;;8.90;8.20;;;11.50;99.90;;;;;;4916663;29;20309;-69
2023/03/17 08:09:10;;;;;;;8.73;7.60;;;11.70;99.90;;;;;;4916274;29;20739;-70
2023/03/17 08:11:36;;;;;;;8.13;7.37;;;11.70;99.90;;;;;;4916173;29;20186;-69
2023/03/17 08:14:03;;;;;;;8.33;7.40;;;11.70;99.90;;;;;;4916231;29;20218;-71
2023/03/17 08:16:31;;;;;;;7.37;6.50;;;11.70;99.90;;;;;;4918340;29;20233;-68
2023/03/17 08:18:57;;;;;;;8.30;7.17;;;11.50;99.90;;;;;;4918232;29;20187;-69
2023/03/17 08:21:26;;;;;;;8.70;7.57;;;11.40;99.90;;;;;;4918437;29;20230;-70
2023/03/17 08:23:55;;;;;;;8.33;7.53;;;11.40;99.90;;;;;;4916753;29;20298;-71
2023/03/17 08:26:22;;;;;;;9.90;7.10;;;11.50;99.90;;;;;;4916226;29;20214;-71
2023/03/17 08:28:49;;;;;;;9.37;8.20;;;11.60;99.90;;;;;;4915391;29;20191;-71
2023/03/17 08:31:17;;;;;;;8.77;7.97;;;12.20;99.90;;;;;;4946847;28;20179;-71
2023/03/17 08:33:49;;;;;;;8.97;8.27;;;12.80;99.90;;;;;;4915701;29;20298;-69
2023/03/17 08:36:16;;;;;;;8.53;7.67;;;13.30;99.90;;;;;;4914907;29;20187;-69
2023/03/17 08:38:43;;;;;;;8.50;7.90;;;14.10;99.90;;;;;;4915891;29;20234;-69
2023/03/17 08:41:13;;;;;;;10.70;9.70;;;14.40;99.90;;;;;;4914936;29;20233;-68
2023/03/17 08:43:40;;;;;;;12.27;11.30;;;14.90;99.90;;;;;;4914601;29;20215;-69
2023/03/17 08:46:14;;;;;;;11.60;10.70;;;14.90;99.90;;;;;;4916046;29;20318;-72
2023/03/17 08:48:40;;;;;;;12.33;11.23;;;15.10;99.90;;;;;;4914777;29;20187;-71
2023/03/17 08:51:06;;;;;;;9.17;8.40;;;15.20;99.90;;;;;;4915675;29;20658;-72
2023/03/17 08:53:33;;;;;;;8.57;7.77;;;15.30;99.90;;;;;;4909110;29;20209;-72
2023/03/17 08:55:59;;;;;;;11.50;10.60;;;15.40;98.70;;;;;;4896514;29;20231;-72
2023/03/17 08:58:26;;;;;;;17.30;15.97;;;15.40;97.90;;;;;;4896389;29;20280;-71
2023/03/17 09:00:52;;;;;;;12.23;11.17;;;15.60;98.50;;;;;;4914198;29;20207;-71
2023/03/17 09:03:19;;;;;;;14.00;12.77;;;15.50;99.20;;;;;;4915167;29;20241;-72
2023/03/17 09:05:47;;;;;;;14.40;13.50;;;15.80;98.10;;;;;;4915740;29;20702;-70
2023/03/17 09:08:13;;;;;;;12.63;11.73;;;16.00;96.90;;;;;;4914977;29;20286;-68
2023/03/17 09:10:39;;;;;;;12.93;11.80;;;16.50;94.60;;;;;;4915136;29;20632;-71
2023/03/17 09:13:05;;;;;;;15.47;10.67;;;16.30;94.20;;;;;;4913684;29;20199;-69
2023/03/17 09:15:32;;;;;;;9.67;8.67;;;16.60;93.50;;;;;;4914969;29;20195;-69
2023/03/17 09:17:58;;;;;;;9.23;8.37;;;16.80;92.50;;;;;;4915326;29;20285;-69
2023/03/17 09:20:24;;;;;;;7.67;7.03;;;17.00;92.70;;;;;;4915123;29;20274;-71
2023/03/17 09:22:50;;;;;;;6.37;5.97;;;17.20;91.10;;;;;;4914995;29;20189;-71
2023/03/17 09:25:17;;;;;;;6.80;6.20;;;17.50;90.60;;;;;;4915342;29;20627;-70
2023/03/17 09:27:43;;;;;;;11.70;6.23;;;17.80;80.90;;;;;;4915389;29;20253;-70
2023/03/17 09:30:12;;;;;;;8.70;8.10;;;18.00;82.10;;;;;;4913146;29;20214;-71
2023/03/17 09:32:39;;;;;;;6.37;5.97;;;18.00;79.10;;;;;;4920198;29;20604;-71
2023/03/17 09:35:05;;;;;;;7.50;7.00;;;18.10;81.00;;;;;;4934129;29;20207;-69
2023/03/17 09:37:33;;;;;;;6.93;6.53;;;18.70;75.00;;;;;;4916308;29;20257;-69
2023/03/17 09:39:59;;;;;;;10.10;9.40;;;19.00;73.70;;;;;;4913832;29;20236;-70
2023/03/17 09:42:48;;;;;;;10.40;9.80;;;19.50;69.40;;;;;;4920618;29;20191;-68
2023/03/17 09:45:17;;;;;;;12.20;11.43;;;19.70;70.40;;;;;;4910870;29;20203;-70
2023/03/17 09:48:19;;;;;;;11.27;10.47;;;19.50;70.80;;;;;;4915183;29;20282;-70
2023/03/17 09:50:45;;;;;;;12.77;11.87;;;19.20;71.50;;;;;;4915234;29;20186;-70
2023/03/17 09:53:20;;;;;;;16.40;15.40;;;19.00;72.90;;;;;;4914900;29;20258;-70
2023/03/17 09:55:51;;;;;;;14.07;13.27;;;18.50;72.70;;;;;;4914556;29;20198;-70
2023/03/17 09:58:24;;;;;;;18.23;17.30;;;19.10;72.80;;;;;;4915513;29;20215;-70
2023/03/17 10:00:51;;;;;;;18.57;17.53;;;19.90;68.10;;;;;;4914741;29;20191;-69
2023/03/17 10:03:17;;;;;;;24.75;23.35;;;20.70;69.60;;;;;;4914711;29;20341;-70
2023/03/17 10:05:43;;;;;;;15.40;14.40;;;20.80;67.80;;;;;;4915015;29;20274;-67
2023/03/17 10:08:30;;;;;;;15.30;14.50;;;20.40;66.80;;;;;;4909894;29;20206;-67
2023/03/17 10:11:15;;;;;;;19.10;17.80;;;19.90;68.80;;;;;;4903712;29;20223;-67
2023/03/17 10:13:43;;;;;;;31.87;30.17;;;19.40;70.60;;;;;;4930861;23;20590;-67
2023/03/17 10:16:17;;;;;;;20.10;18.90;;;19.50;71.80;;;;;;4912893;29;20937;-67
2023/03/17 10:18:51;;;;;;;16.47;15.37;;;19.40;70.00;;;;;;4914351;29;20238;-67
2023/03/17 10:21:24;;;;;;;24.97;23.57;;;18.80;70.40;;;;;;4914744;29;20210;-67
2023/03/17 10:23:52;;;;;;;25.63;24.23;;;19.10;72.00;;;;;;4895967;29;20554;-67
2023/03/17 10:26:38;;;;;;;19.70;17.90;;;19.50;70.60;;;;;;4898277;29;20965;-67
2023/03/17 10:29:12;;;;;;;15.77;14.90;;;20.20;68.30;;;;;;4914382;29;20243;-65
2023/03/17 10:31:39;;;;;;;10.23;9.32;;;20.90;67.30;;;;;;4898632;29;20866;-67
2023/03/17 10:34:33;;;;;;;7.07;5.82;;;22.10;65.20;;;;;;4895636;29;20585;-65
2023/03/17 10:37:12;;;;;;;4.90;4.50;;;23.30;58.80;;;;;;4901208;29;20282;-66
2023/03/17 10:39:50;;;;;;;7.10;4.60;;;24.20;56.20;;;;;;4897435;29;20199;-65
2023/03/17 10:42:31;;;;;;;5.22;4.25;;;23.20;57.20;;;;;;4895748;29;20187;-66
2023/03/17 10:45:15;;;;;;;5.68;4.35;;;23.50;57.00;;;;;;4893926;29;20342;-66
2023/03/17 10:47:47;;;;;;;5.00;4.57;;;24.10;56.60;;;;;;4894439;29;20211;-66
2023/03/17 10:50:23;;;;;;;14.95;12.77;;;24.50;55.00;;;;;;4895260;29;20187;-66
2023/03/17 10:52:56;;;;;;;12.07;11.32;;;24.90;53.50;;;;;;4898096;29;20187;-66
2023/03/17 10:55:28;;;;;;;18.17;17.00;;;25.40;50.70;;;;;;4897512;29;20211;-66
2023/03/17 10:58:06;;;;;;;14.15;13.43;;;25.30;49.60;;;;;;4897316;29;20575;-65
2023/03/17 11:00:35;;;;;;;19.08;17.77;;;24.90;51.60;;;;;;4893383;29;20331;-67
2023/03/17 11:03:19;;;;;;;15.15;14.35;;;25.10;49.70;;;;;;4898675;29;20179;-65
2023/03/17 11:06:00;;;;;;;14.70;13.57;;;24.70;50.50;;;;;;4897654;29;20207;-67
2023/03/17 11:08:31;;;;;;;16.77;15.73;;;25.20;49.50;;;;;;4898447;29;20187;-67
2023/03/17 11:10:57;;;;;;;16.80;15.60;;;26.20;48.00;;;;;;4899077;29;20211;-64
2023/03/17 11:13:29;;;;;;;14.32;13.43;;;26.20;49.20;;;;;;4897685;29;20179;-65
2023/03/17 11:16:22;;;;;;;11.70;10.82;;;26.20;48.70;;;;;;4898127;29;20202;-64
2023/03/17 11:18:52;;;;;;;20.25;19.02;;;26.00;48.00;;;;;;4897324;29;20187;-67
2023/03/17 11:21:45;;;;;;;19.60;18.50;;;25.20;49.30;;;;;;4898347;29;20180;-67
2023/03/17 11:24:28;;;;;;;16.55;15.23;;;24.90;49.50;;;;;;4879213;29;20208;-65
2023/03/17 11:26:58;;;;;;;13.15;12.23;;;24.30;52.10;;;;;;4879663;29;20244;-65
2023/03/17 11:29:45;;;;;;;7.75;7.18;;;23.60;53.50;;;;;;4878739;29;20727;-65
2023/03/17 11:32:17;;;;;;;7.93;7.22;;;23.20;55.80;;;;;;4897114;29;20692;-66
2023/03/17 11:35:03;;;;;;;9.07;8.38;;;23.40;54.90;;;;;;4897725;29;20745;-66
2023/03/17 11:37:47;;;;;;;26.17;24.60;;;24.40;52.70;;;;;;4865385;29;20224;-66
2023/03/17 11:40:33;;;;;;;16.48;15.65;;;25.10;49.30;;;;;;4878982;29;20631;-65
2023/03/17 11:43:20;;;;;;;17.60;16.75;;;24.70;51.20;;;;;;4888616;29;20180;-65
2023/03/17 11:46:26;;;;;;;17.75;16.85;;;25.50;50.00;;;;;;4911217;29;20237;-64
2023/03/17 11:49:39;;;;;;;16.42;15.43;;;25.50;49.10;;;;;;4915478;29;20179;-64
2023/03/17 11:52:35;;;;;;;18.15;17.05;;;25.50;48.50;;;;;;4897613;29;20195;-64
2023/03/17 11:55:36;;;;;;;17.38;16.55;;;24.30;49.30;;;;;;4897766;29;20212;-64
2023/03/17 11:58:10;;;;;;;17.20;16.20;;;24.80;48.70;;;;;;4895366;29;20223;-65
2023/03/17 12:00:44;;;;;;;16.98;15.88;;;24.90;51.20;;;;;;4896692;29;20267;-65
2023/03/17 12:03:39;;;;;;;14.45;13.65;;;25.30;49.80;;;;;;4901962;29;20187;-65
2023/03/17 12:06:30;;;;;;;17.60;16.48;;;26.40;46.30;;;;;;4916559;29;20191;-65
2023/03/17 12:09:09;;;;;;;11.93;11.32;;;27.20;44.20;;;;;;4916225;29;20187;-65
2023/03/17 12:11:40;;;;;;;10.35;9.82;;;26.30;46.70;;;;;;4911618;29;20191;-65
2023/03/17 12:14:27;;;;;;;18.08;17.25;;;26.70;45.70;;;;;;4896060;29;20222;-67
2023/03/17 12:17:05;;;;;;;32.78;31.08;;;28.00;43.50;;;;;;4897744;29;20242;-65
2023/03/17 12:20:05;;;;;;;20.60;19.48;;;28.50;42.40;;;;;;4897364;29;20262;-65
2023/03/17 12:22:45;;;;;;;34.83;33.08;;;27.80;42.40;;;;;;4897660;29;20184;-65
2023/03/17 12:25:19;;;;;;;28.08;26.73;;;27.50;43.90;;;;;;4897717;29;20215;-66
2023/03/17 12:28:02;;;;;;;30.90;29.40;;;27.60;43.90;;;;;;4897558;29;20672;-65
2023/03/17 12:30:44;;;;;;;35.05;33.15;;;27.30;44.90;;;;;;4910930;29;20235;-66
2023/03/17 12:33:20;;;;;;;31.13;29.33;;;27.00;46.00;;;;;;4897346;29;20192;-65
2023/03/17 12:35:46;;;;;;;29.17;27.83;;;27.20;43.10;;;;;;4895464;29;20215;-65
2023/03/17 12:38:26;;;;;;;35.85;34.13;;;27.10;42.60;;;;;;4897325;29;20229;-65
2023/03/17 12:41:13;;;;;;;19.80;18.80;;;27.00;44.50;;;;;;4897178;29;20193;-66
2023/03/17 12:43:47;;;;;;;18.40;17.60;;;27.40;42.30;;;;;;4896775;29;20192;-65
2023/03/17 12:46:58;;;;;;;18.63;17.63;;;27.80;42.10;;;;;;4897068;29;20266;-65
2023/03/17 12:50:07;;;;;;;27.80;26.27;;;27.50;43.00;;;;;;4892691;29;20567;-65
2023/03/17 12:52:47;;;;;;;14.32;13.52;;;27.30;44.10;;;;;;4879628;29;20234;-65
2023/03/17 12:55:16;;;;;;;21.80;20.60;;;27.70;40.40;;;;;;4897258;29;20204;-66
2023/03/17 12:57:45;;;;;;;17.63;16.55;;;27.30;42.30;;;;;;4896841;29;20208;-65
2023/03/17 13:00:20;;;;;;;12.18;11.48;;;26.90;42.40;;;;;;4896179;29;20218;-65
2023/03/17 13:02:50;;;;;;;11.00;10.50;;;27.00;40.80;;;;;;4898438;29;20180;-65
2023/03/17 13:05:27;;;;;;;24.75;23.23;;;26.80;40.80;;;;;;4915232;29;20293;-70
2023/03/17 13:07:58;;;;;;;24.45;23.27;;;26.30;44.00;;;;;;4915636;29;20327;-70
2023/03/17 13:10:42;;;;;;;36.72;34.83;;;26.10;43.10;;;;;;4915137;29;20668;-71
2023/03/17 13:13:12;;;;;;;35.25;33.55;;;25.80;45.40;;;;;;4905914;29;20192;-70
2023/03/17 13:15:38;;;;;;;38.00;36.17;;;25.60;45.00;;;;;;4895870;29;20338;-70
2023/03/17 13:18:13;;;;;;;32.20;30.70;;;25.80;44.10;;;;;;4895150;29;20499;-70
2023/03/17 13:20:51;;;;;;;32.03;30.33;;;26.40;42.70;;;;;;4894607;29;20187;-71
2023/03/17 13:23:20;;;;;;;33.10;31.35;;;26.20;44.40;;;;;;4895362;29;20192;-70
2023/03/17 13:25:52;;;;;;;29.23;27.85;;;26.20;47.70;;;;;;4895415;29;20215;-71
2023/03/17 13:28:41;;;;;;;31.45;29.75;;;26.20;44.50;;;;;;4895346;29;20615;-71
2023/03/17 13:31:15;;;;;;;39.88;37.75;;;26.40;44.00;;;;;;4896680;29;20192;-70
2023/03/17 13:33:50;;;;;;;39.92;38.03;;;25.80;46.40;;;;;;4895182;29;20287;-71
2023/03/17 13:36:26;;;;;;;29.30;27.92;;;25.60;46.10;;;;;;4896571;29;20187;-70
2023/03/17 13:39:22;;;;;;;20.55;19.55;;;25.70;42.60;;;;;;4896272;29;20191;-70
2023/03/17 13:42:05;;;;;;;18.83;17.65;;;26.10;40.40;;;;;;4896537;29;20270;-70
2023/03/17 13:44:46;;;;;;;20.55;19.55;;;26.30;39.90;;;;;;4896514;29;20735;-70
2023/03/17 13:47:33;;;;;;;18.25;17.33;;;26.20;42.10;;;;;;4877219;29;20192;-70
2023/03/17 13:50:22;;;;;;;20.20;19.30;;;26.30;39.70;;;;;;4876600;29;20196;-70
2023/03/17 13:53:00;;;;;;;18.40;17.40;;;26.20;41.00;;;;;;4894690;29;20748;-70
2023/03/17 13:56:25;;;;;;;23.48;22.38;;;26.00;41.30;;;;;;4895251;29;20208;-70
2023/03/17 13:59:11;;;;;;;16.73;15.93;;;25.60;41.70;;;;;;4888409;29;20204;-70
2023/03/17 14:01:45;;;;;;;21.08;20.08;;;25.40;40.60;;;;;;4896198;29;20188;-70
2023/03/17 14:04:21;;;;;;;27.35;25.92;;;24.80;41.40;;;;;;4895948;29;20204;-70
2023/03/17 14:06:50;;;;;;;25.85;24.48;;;24.90;42.80;;;;;;4895262;29;20195;-70
2023/03/17 14:09:42;;;;;;;25.10;23.83;;;24.90;41.90;;;;;;4896188;29;20192;-70
2023/03/17 14:12:24;;;;;;;27.67;26.38;;;25.30;40.80;;;;;;4895016;29;20658;-70
2023/03/17 14:15:03;;;;;;;25.98;24.80;;;25.00;42.00;;;;;;4882930;29;20600;-70
2023/03/17 14:17:40;;;;;;;29.90;28.50;;;25.10;41.70;;;;;;4896030;29;20207;-71
2023/03/17 14:20:12;;;;;;;24.63;23.42;;;25.20;42.50;;;;;;4896207;29;20191;-70
2023/03/17 14:22:40;;;;;;;25.40;23.95;;;25.40;41.20;;;;;;4903466;29;20187;-70
2023/03/17 14:25:12;;;;;;;34.97;33.33;;;25.40;40.60;;;;;;4900875;29;20195;-71
2023/03/17 14:27:40;;;;;;;38.55;36.72;;;25.30;42.90;;;;;;4898990;29;20192;-70
2023/03/17 14:30:15;;;;;;;35.55;33.55;;;25.20;43.30;;;;;;4898297;29;20614;-70
2023/03/17 14:33:11;;;;;;;37.45;35.65;;;24.80;44.20;;;;;;4899753;29;20195;-70
2023/03/17 14:35:41;;;;;;;34.92;33.30;;;24.40;43.80;;;;;;4891951;29;20283;-70
2023/03/17 14:38:20;;;;;;;30.17;28.35;;;24.20;44.30;;;;;;4898901;29;20215;-70
2023/03/17 14:40:47;;;;;;;28.83;27.23;;;23.90;44.10;;;;;;4898539;29;20651;-70
2023/03/17 14:43:14;;;;;;;21.85;20.75;;;23.60;44.80;;;;;;4899501;29;20176;-70
2023/03/17 14:45:58;;;;;;;19.05;18.08;;;23.30;45.20;;;;;;4899436;29;20207;-70
2023/03/17 14:48:27;;;;;;;17.50;16.65;;;22.80;46.30;;;;;;4898409;29;20191;-70
2023/03/17 14:51:04;;;;;;;21.13;20.00;;;22.80;46.80;;;;;;4899623;29;20183;-70
2023/03/17 14:53:35;;;;;;;16.15;15.35;;;22.90;45.00;;;;;;4898145;29;20272;-70
2023/03/17 14:56:03;;;;;;;15.98;15.20;;;22.70;45.80;;;;;;4899582;29;20195;-70
2023/03/17 14:59:02;;;;;;;15.48;14.70;;;22.70;46.30;;;;;;4898068;29;20185;-70
2023/03/17 15:01:40;;;;;;;13.77;12.93;;;22.80;46.10;;;;;;4899350;29;20184;-70
2023/03/17 15:04:17;;;;;;;12.52;11.73;;;22.70;46.60;;;;;;4899200;29;20259;-70
2023/03/17 15:06:50;;;;;;;11.82;11.23;;;22.30;48.10;;;;;;4899436;29;20195;-70
2023/03/17 15:09:32;;;;;;;10.73;10.13;;;22.00;48.20;;;;;;4898908;29;20188;-70
2023/03/17 15:12:03;;;;;;;10.65;9.98;;;21.90;48.30;;;;;;4899314;29;20191;-70
2023/03/17 15:14:33;;;;;;;11.85;11.15;;;21.80;49.20;;;;;;4898889;29;20707;-70
2023/03/17 15:17:02;;;;;;;9.85;9.27;;;21.80;48.40;;;;;;4898193;29;20216;-70
2023/03/17 15:19:41;;;;;;;10.98;10.38;;;21.70;48.90;;;;;;4897673;29;20279;-70
2023/03/17 15:22:35;;;;;;;9.40;8.77;;;21.50;49.10;;;;;;4898354;29;20719;-70
2023/03/17 15:25:32;;;;;;;8.63;8.23;;;21.50;50.30;;;;;;4880676;29;20235;-70
2023/03/17 15:27:58;;;;;;;9.20;8.60;;;21.50;48.50;;;;;;4895094;29;20211;-71
2023/03/17 15:30:25;;;;;;;7.68;7.30;;;21.30;49.60;;;;;;4898314;29;20192;-70
2023/03/17 15:32:59;;;;;;;7.22;6.75;;;21.30;50.50;;;;;;4898492;29;20795;-70
2023/03/17 15:35:26;;;;;;;8.10;6.47;;;21.20;50.70;;;;;;4897243;29;20260;-71
2023/03/17 15:37:52;;;;;;;7.78;7.05;;;21.10;51.60;;;;;;4897243;29;20215;-70
2023/03/17 15:40:19;;;;;;;8.93;8.32;;;21.10;52.00;;;;;;4896846;29;20202;-71
2023/03/17 15:42:45;;;;;;;11.75;10.27;;;21.00;52.90;;;;;;4896916;29;20283;-71
2023/03/17 15:45:15;;;;;;;7.82;7.18;;;20.90;53.30;;;;;;4898354;29;20224;-71
2023/03/17 15:47:42;;;;;;;6.13;5.60;;;20.80;54.00;;;;;;4897894;29;20631;-71
2023/03/17 15:50:28;;;;;;;4.82;4.53;;;20.70;55.50;;;;;;4898833;29;20254;-71
2023/03/17 15:52:57;;;;;;;4.30;4.00;;;20.60;55.40;;;;;;4898679;29;20196;-71
2023/03/17 15:55:28;;;;;;;5.27;4.97;;;20.50;55.90;;;;;;4898008;29;20215;-71
2023/03/17 15:57:55;;;;;;;5.77;5.00;;;20.20;56.80;;;;;;4898104;29;20306;-71
2023/03/17 16:00:22;;;;;;;6.80;4.78;;;20.10;57.40;;;;;;4897797;29;20720;-71
2023/03/17 16:02:52;;;;;;;5.47;5.07;;;19.90;58.00;;;;;;4896844;29;20188;-70
2023/03/17 16:05:24;;;;;;;5.38;4.90;;;19.80;58.50;;;;;;4898169;29;20208;-70
2023/03/17 16:07:51;;;;;;;6.60;5.90;;;19.80;58.60;;;;;;4896886;29;20921;-69
2023/03/17 16:10:28;;;;;;;6.65;6.05;;;19.70;59.30;;;;;;4897283;29;20184;-68
2023/03/17 16:12:53;;;;;;;7.30;5.40;;;19.70;62.00;;;;;;4898397;29;20246;-67
2023/03/17 16:15:25;;;;;;;6.33;5.60;;;19.60;61.40;;;;;;4930446;23;20782;-67
2023/03/17 16:17:56;;;;;;;12.33;7.00;;;19.50;61.30;;;;;;4915745;29;20247;-66
2023/03/17 16:20:37;;;;;;;6.23;5.63;;;19.50;61.70;;;;;;4910754;29;20300;-73
2023/03/17 16:23:15;;;;;;;6.57;6.05;;;19.30;62.10;;;;;;4914132;29;20603;-73
2023/03/17 16:25:42;;;;;;;7.90;5.57;;;19.20;63.00;;;;;;4914270;29;20206;-73
2023/03/17 16:28:19;;;;;;;8.03;5.83;;;19.00;62.90;;;;;;4914295;29;20221;-73
2023/03/17 16:30:46;;;;;;;7.27;6.63;;;18.90;63.90;;;;;;4915613;29;20281;-72
2023/03/17 16:33:21;;;;;;;7.43;6.40;;;18.90;66.00;;;;;;4914119;29;20190;-74
2023/03/17 16:35:48;;;;;;;10.10;9.43;;;18.80;65.70;;;;;;4914228;29;20617;-73
2023/03/17 16:38:16;;;;;;;17.47;16.13;;;18.60;66.70;;;;;;4913896;29;20695;-73
2023/03/17 16:40:45;;;;;;;21.37;20.03;;;18.40;67.10;;;;;;4913842;29;20234;-73
2023/03/17 16:43:32;;;;;;;21.97;20.67;;;18.30;67.40;;;;;;4913631;29;20284;-74
2023/03/17 16:45:59;;;;;;;17.73;16.67;;;18.20;67.70;;;;;;4915093;29;20213;-73
2023/03/17 16:48:25;;;;;;;17.17;15.97;;;18.00;68.40;;;;;;4913746;29;20601;-73
2023/03/17 16:50:52;;;;;;;14.27;13.43;;;17.90;68.80;;;;;;4914511;29;20265;-73
2023/03/17 16:53:18;;;;;;;15.90;14.83;;;17.80;69.40;;;;;;4914664;29;20197;-73
2023/03/17 16:55:44;;;;;;;15.87;14.77;;;17.70;69.50;;;;;;4913895;29;20762;-73
2023/03/17 16:58:25;;;;;;;14.97;13.73;;;17.60;69.90;;;;;;4915060;29;20211;-73
2023/03/17 17:00:56;;;;;;;13.33;12.13;;;17.50;70.00;;;;;;4913727;29;20198;-73
2023/03/17 17:03:22;;;;;;;14.07;13.10;;;17.50;69.30;;;;;;4914716;29;20190;-73